Baldwinville, MA

9:10 AM EDT on April 26, 2015 (GMT -0400)
S. Main St. East Templeton | | Change Station
CLOSE
Current Station
Personal Weather Station
Location: East Templeton, MA
Elevation: 1033 ft
Nearby Weather Stations

Elev 1033 ft 42.56 °N, 72.04 °W | Updated 51 seconds ago

Overcast
Overcast
45.5 °F
Feels Like 46 °F
N
2.0
Wind Variable Wind from NW
Gusts 4.0 mph

Today
High -- | Low -- °F
--% Chance of Precip.
Yesterday
High -- | Low -- °F
Precip. -- in
5:50 AM 7:42 PM
First Quarter, 55% visible
Pressure 29.69 in
Visibility 10.0 miles
Clouds Overcast 7000 ft
Windchill 46 °F
Dew Point 33 °F
Humidity 62%
Rainfall 0.00 in
Snow Depth Not available.
UV 1 out of 12
Pollen 10.00 out of 12
Air Quality Not available.
Flu Activity Widespread
METAR KORE 261252Z AUTO 00000KT 10SM OVC070 07/00 A2968 RMK AO2 SLP054 T00720000

More Conditions Fewer Conditions

Pressure 29.69 in
Visibility 10.0 miles
Clouds Overcast 7000 ft
Windchill 46 °F
Dew Point 33 °F
Humidity 62%
Rainfall 0.00 in
Snow Depth Not available.
UV 1 out of 12
Pollen 10.00 out of 12
Air Quality Not available.
Flu Activity Widespread
METAR KORE 261252Z AUTO 00000KT 10SM OVC070 07/00 A2968 RMK AO2 SLP054 T00720000

More Conditions Fewer Conditions

The full scope of the disaster following a powerful 7.8-magnitude earthquake in Nepal may not come into view for days, but global charities are already sending emergency aid. Click to see how you can help.

10-Day Weather Forecast

Almanac

Astronomy

Apr. 26, 2015 Rise Set
Actual Time
Civil Twilight
Nautical Twilight
Astronomical Twilight
Moon
Length of Visible Light
Length of Day
Tomorrow will be .
, % of the Moon is Illuminated

Today's Extremes

State Highs State Lows

Community

WunderPhotos

Upload Photos

1,816,985 photos uploaded!

WunderBlogs® & News

Nearby

Air Quality

  Air Quality AQ Index Pollutant
Not available.

Snow Depth

Station Depth Elevation

Earthquake Activity

City Distance Mag. Time & Date
Minimum magnitude displayed is 2.5.

Coastal Water Temperatures

Place Temperature

Stations

Nearby Weather Stations

Station Location Temp. Windchill Dew Point Humidity Wind Precip. Elev Updated Type